Time;durP1;ratioP1;P1;durP2;ratioP2;P2;SDS_P1;SDS_P2;PMS_P1;PMS_P2;Temp;Humidity;BMP_temperature;BMP_pressure;BME280_temperature;BME280_humidity;BME280_pressure;Samples;Min_cycle;Max_cycle;Signal;HPM_P1;HPM_P2
2022/09/02 00:02:31;;;;;;;12.27;8.65;;;;;;;22.47;100.00;100881.66;5023529;28;20439;-74
2022/09/02 00:05:17;;;;;;;15.65;9.43;;;;;;;22.74;100.00;100880.72;5037607;28;20044;-75
2022/09/02 00:08:04;;;;;;;13.90;10.05;;;;;;;22.77;100.00;100880.53;5024085;28;20410;-74
2022/09/02 00:10:50;;;;;;;14.23;9.50;;;;;;;22.53;100.00;100882.13;5022385;28;20411;-75
2022/09/02 00:13:36;;;;;;;13.10;10.23;;;;;;;22.50;100.00;100890.31;5036692;28;20087;-75
2022/09/02 00:16:23;;;;;;;13.43;9.82;;;;;;;22.72;100.00;100885.34;5036359;28;20033;-74
2022/09/02 00:19:09;;;;;;;14.93;10.23;;;;;;;22.64;100.00;100887.66;5037286;28;20175;-75
2022/09/02 00:21:57;;;;;;;13.73;10.82;;;;;;;22.53;100.00;100891.94;5037116;28;20113;-75
2022/09/02 00:24:43;;;;;;;14.95;10.32;;;;;;;22.66;100.00;100888.38;5035658;28;20018;-74
2022/09/02 00:27:29;;;;;;;14.02;10.82;;;;;;;22.67;100.00;100892.75;5035757;28;20068;-74
2022/09/02 00:30:15;;;;;;;12.82;10.35;;;;;;;22.74;100.00;100894.09;5023054;28;20030;-74
2022/09/02 00:33:02;;;;;;;16.63;10.50;;;;;;;22.65;100.00;100892.03;5022064;28;20032;-74
2022/09/02 00:35:49;;;;;;;14.95;10.68;;;;;;;22.71;100.00;100891.59;5037076;28;20029;-74
2022/09/02 00:38:36;;;;;;;15.60;11.77;;;;;;;22.54;100.00;100897.19;5035489;28;20338;-74
2022/09/02 00:41:25;;;;;;;17.77;12.43;;;;;;;22.49;100.00;100895.75;5037870;28;20040;-74
2022/09/02 00:44:14;;;;;;;16.77;13.23;;;;;;;22.52;100.00;100901.78;5023014;28;20037;-74
2022/09/02 00:47:00;;;;;;;16.15;13.30;;;;;;;22.36;100.00;100903.66;5036480;28;20093;-75
2022/09/02 00:49:52;;;;;;;17.63;12.95;;;;;;;22.54;100.00;100899.84;5035986;28;20033;-75
2022/09/02 00:52:52;;;;;;;19.02;13.32;;;;;;;22.50;100.00;100898.34;5037339;28;20072;-74
2022/09/02 00:55:45;;;;;;;19.00;13.38;;;;;;;22.60;100.00;100899.47;5035954;28;20380;-75
2022/09/02 00:58:34;;;;;;;17.95;13.07;;;;;;;22.43;100.00;100896.13;5036215;28;20033;-75
2022/09/02 01:01:21;;;;;;;19.00;13.25;;;;;;;22.58;100.00;100901.38;5035847;28;20043;-74
2022/09/02 01:04:07;;;;;;;14.85;12.07;;;;;;;22.44;100.00;100901.38;5035239;28;20116;-75
2022/09/02 01:06:53;;;;;;;21.27;12.88;;;;;;;22.79;100.00;100905.31;5036168;28;20087;-75
2022/09/02 01:09:39;;;;;;;19.98;13.05;;;;;;;22.50;100.00;100903.69;5035232;28;20410;-74
2022/09/02 01:12:26;;;;;;;20.35;13.13;;;;;;;22.69;100.00;100901.56;5035864;28;20069;-75
2022/09/02 01:15:14;;;;;;;17.23;12.88;;;;;;;22.73;100.00;100903.06;5034934;28;20327;-75
2022/09/02 01:18:00;;;;;;;15.55;11.30;;;;;;;22.55;100.00;100895.38;5034435;28;20049;-74
2022/09/02 01:20:46;;;;;;;15.30;12.05;;;;;;;22.48;100.00;100894.91;5036115;28;20029;-75
2022/09/02 01:23:34;;;;;;;17.85;11.77;;;;;;;22.57;100.00;100888.13;5035075;28;20032;-75
2022/09/02 01:26:20;;;;;;;14.00;11.10;;;;;;;22.02;100.00;100901.38;5035142;28;20025;-74
2022/09/02 01:29:05;;;;;;;15.93;10.55;;;;;;;22.19;100.00;100890.50;5035219;28;20040;-74
2022/09/02 01:31:51;;;;;;;15.30;10.32;;;;;;;22.00;100.00;100892.59;5035593;28;20344;-74
2022/09/02 01:34:37;;;;;;;13.25;10.43;;;;;;;22.14;100.00;100894.44;5034651;28;20030;-75
2022/09/02 01:37:23;;;;;;;16.90;10.18;;;;;;;22.10;100.00;100891.06;5034719;28;20030;-74
2022/09/02 01:40:13;;;;;;;18.90;9.98;;;;;;;22.37;100.00;100885.81;5035185;28;20029;-75
2022/09/02 01:43:06;;;;;;;12.95;10.20;;;;;;;21.81;100.00;100894.69;5036557;28;20086;-74
2022/09/02 01:45:56;;;;;;;14.63;10.00;;;;;;;21.95;100.00;100892.00;5035780;28;20037;-74
2022/09/02 01:48:41;;;;;;;15.15;10.75;;;;;;;22.09;100.00;100897.38;5034069;28;20026;-74
2022/09/02 01:51:27;;;;;;;15.75;10.52;;;;;;;21.89;100.00;100899.53;5034462;28;20033;-74
2022/09/02 01:54:13;;;;;;;14.07;9.90;;;;;;;21.76;100.00;100904.78;5034604;28;20462;-75
2022/09/02 01:56:59;;;;;;;13.95;9.63;;;;;;;21.93;100.00;100906.41;5034022;28;20045;-76
2022/09/02 01:59:45;;;;;;;11.82;9.63;;;;;;;21.74;100.00;100904.00;5035521;28;20446;-75
2022/09/02 02:02:31;;;;;;;17.27;9.57;;;;;;;21.59;100.00;100902.25;5021322;28;20026;-75
2022/09/02 02:05:17;;;;;;;17.00;10.23;;;;;;;21.53;100.00;100899.91;5034279;28;20029;-74
2022/09/02 02:08:04;;;;;;;17.30;10.10;;;;;;;21.80;100.00;100900.97;5034544;28;20021;-75
2022/09/02 02:10:49;;;;;;;14.65;10.48;;;;;;;21.92;100.00;100896.69;5034393;28;20037;-75
2022/09/02 02:13:35;;;;;;;14.77;9.98;;;;;;;22.04;100.00;100886.13;5034341;28;20037;-75
2022/09/02 02:16:21;;;;;;;15.52;10.40;;;;;;;21.80;100.00;100881.44;5034826;28;20052;-74
2022/09/02 02:19:07;;;;;;;17.75;10.13;;;;;;;21.42;100.00;100888.19;5034705;28;20412;-74
2022/09/02 02:21:53;;;;;;;17.73;10.05;;;;;;;21.73;100.00;100891.63;5033747;28;20025;-75
2022/09/02 02:24:39;;;;;;;16.58;10.77;;;;;;;21.44;100.00;100892.47;5034392;28;20022;-75
2022/09/02 02:27:25;;;;;;;12.90;10.27;;;;;;;21.39;100.00;100897.22;5035845;28;20017;-75
2022/09/02 02:30:13;;;;;;;17.10;11.20;;;;;;;21.57;100.00;100901.44;5034435;28;20450;-75
2022/09/02 02:32:58;;;;;;;16.83;10.45;;;;;;;21.68;100.00;100903.47;5033545;28;20033;-75
2022/09/02 02:35:44;;;;;;;16.10;10.88;;;;;;;21.49;100.00;100903.72;5034078;28;20120;-75
2022/09/02 02:38:35;;;;;;;13.02;10.60;;;;;;;21.48;100.00;100902.00;5021322;28;20033;-74
2022/09/02 02:41:21;;;;;;;16.83;10.48;;;;;;;21.93;100.00;100906.41;5020636;28;20103;-75
2022/09/02 02:44:07;;;;;;;13.93;10.88;;;;;;;21.69;100.00;100900.72;5033986;28;20017;-75
2022/09/02 02:46:53;;;;;;;16.33;10.73;;;;;;;21.61;100.00;100904.78;5033947;28;20018;-75
2022/09/02 02:49:41;;;;;;;15.85;10.48;;;;;;;21.48;100.00;100901.13;5034562;28;20029;-75
2022/09/02 02:52:27;;;;;;;11.93;10.13;;;;;;;21.26;100.00;100904.19;5034191;28;20064;-75
2022/09/02 02:55:14;;;;;;;13.02;9.68;;;;;;;21.28;100.00;100907.66;5034146;28;20369;-75
2022/09/02 02:58:00;;;;;;;12.15;9.60;;;;;;;21.31;100.00;100912.81;5034082;28;20029;-75
2022/09/02 03:00:47;;;;;;;13.07;9.40;;;;;;;21.08;100.00;100907.94;5019392;28;20138;-74
2022/09/02 03:03:33;;;;;;;11.20;9.25;;;;;;;21.15;100.00;100909.31;5034233;28;20025;-75
2022/09/02 03:06:19;;;;;;;14.45;9.45;;;;;;;21.16;100.00;100910.16;5034315;28;20043;-74
2022/09/02 03:09:04;;;;;;;16.55;8.40;;;;;;;21.17;100.00;100910.06;5033786;28;20524;-75
2022/09/02 03:11:50;;;;;;;12.52;8.25;;;;;;;21.23;100.00;100912.41;5034378;28;20319;-75
2022/09/02 03:14:36;;;;;;;13.95;8.02;;;;;;;21.48;100.00;100923.34;5038071;28;20126;-75
2022/09/02 03:17:22;;;;;;;16.92;8.32;;;;;;;21.23;100.00;100917.72;5037784;28;20037;-74
2022/09/02 03:20:09;;;;;;;13.15;7.47;;;;;;;21.13;100.00;100913.03;5038314;28;20025;-75
2022/09/02 03:22:57;;;;;;;13.10;7.50;;;;;;;20.97;100.00;100909.53;5038106;28;20036;-75
2022/09/02 03:25:44;;;;;;;12.68;6.85;;;;;;;20.87;100.00;100905.59;5036645;28;20025;-74
2022/09/02 03:28:32;;;;;;;9.77;7.43;;;;;;;20.85;100.00;100912.84;5023902;28;20422;-74
2022/09/02 03:31:21;;;;;;;10.60;6.93;;;;;;;21.25;100.00;100922.94;5023200;28;20025;-75
2022/09/02 03:34:06;;;;;;;17.35;8.35;;;;;;;21.18;100.00;100913.59;5038465;28;20025;-75
2022/09/02 03:36:52;;;;;;;12.85;8.18;;;;;;;21.24;100.00;100921.22;5038323;28;20373;-75
2022/09/02 03:39:39;;;;;;;8.38;7.18;;;;;;;21.19;100.00;100912.66;5037899;28;20044;-75
2022/09/02 03:42:25;;;;;;;13.40;7.60;;;;;;;21.26;100.00;100912.19;5023730;28;20029;-74
2022/09/02 03:45:14;;;;;;;12.20;8.13;;;;;;;21.46;100.00;100919.88;5024096;28;20410;-74
2022/09/02 03:48:00;;;;;;;11.98;7.72;;;;;;;21.47;100.00;100918.09;5023363;28;20053;-75
2022/09/02 03:50:46;;;;;;;12.75;7.00;;;;;;;21.48;100.00;100918.00;5036748;28;20108;-75
2022/09/02 03:53:33;;;;;;;12.05;7.20;;;;;;;21.63;100.00;100922.44;5036986;28;20032;-74
2022/09/02 03:56:20;;;;;;;12.48;6.93;;;;;;;21.37;100.00;100923.09;5037156;28;20045;-75
2022/09/02 03:59:06;;;;;;;12.38;8.35;;;;;;;21.43;100.00;100919.22;5023628;28;20033;-74
2022/09/02 04:01:52;;;;;;;9.80;6.43;;;;;;;21.59;100.00;100928.91;5036186;28;20427;-74
2022/09/02 04:04:37;;;;;;;12.52;6.47;;;;;;;21.53;100.00;100926.59;5036960;28;20049;-75
2022/09/02 04:07:23;;;;;;;10.50;6.20;;;;;;;21.51;100.00;100930.28;5037338;28;20354;-76
2022/09/02 04:10:10;;;;;;;9.27;6.32;;;;;;;21.55;100.00;100931.84;5037748;28;20043;-72
2022/09/02 04:12:56;;;;;;;11.70;6.53;;;;;;;21.30;100.00;100929.72;5038097;28;20040;-75
2022/09/02 04:15:46;;;;;;;9.02;6.15;;;;;;;21.38;100.00;100930.13;5036760;28;20485;-74
2022/09/02 04:18:32;;;;;;;14.27;6.25;;;;;;;21.32;100.00;100932.31;5037064;28;20039;-75
2022/09/02 04:21:18;;;;;;;11.38;5.57;;;;;;;21.18;100.00;100932.25;5036930;28;20119;-75
2022/09/02 04:24:06;;;;;;;8.95;5.28;;;;;;;21.19;100.00;100931.31;5021656;28;20056;-74
2022/09/02 04:26:52;;;;;;;8.73;5.55;;;;;;;21.48;100.00;100942.00;5036724;28;20053;-75
2022/09/02 04:29:38;;;;;;;9.98;5.20;;;;;;;21.43;100.00;100944.09;5035373;28;20026;-74
2022/09/02 04:32:25;;;;;;;10.07;5.47;;;;;;;21.36;100.00;100941.84;5036810;28;20100;-75
2022/09/02 04:35:11;;;;;;;14.00;5.03;;;;;;;21.28;100.00;100941.44;5036439;28;20122;-74
2022/09/02 04:37:57;;;;;;;11.13;5.00;;;;;;;21.76;100.00;100949.25;5036296;28;20079;-74
2022/09/02 04:40:45;;;;;;;8.63;5.13;;;;;;;21.60;100.00;100946.63;5036495;28;20466;-74
2022/09/02 04:43:31;;;;;;;11.05;5.18;;;;;;;21.43;100.00;100951.22;5036711;28;20113;-74
2022/09/02 04:46:17;;;;;;;7.03;4.80;;;;;;;21.39;100.00;100963.88;5036283;28;20022;-75
2022/09/02 04:49:03;;;;;;;10.38;5.18;;;;;;;21.62;100.00;100971.38;5037325;28;20036;-74
2022/09/02 04:51:49;;;;;;;15.82;5.78;;;;;;;21.96;100.00;100962.25;5036499;28;20469;-75
2022/09/02 04:54:36;;;;;;;10.57;5.07;;;;;;;21.89;100.00;100974.25;5035753;28;20446;-74
2022/09/02 04:57:21;;;;;;;8.77;4.70;;;;;;;21.43;100.00;100973.41;5035807;28;20054;-74
2022/09/02 05:00:08;;;;;;;18.10;6.78;;;;;;;21.73;100.00;100976.09;5036664;28;20037;-74
2022/09/02 05:02:54;;;;;;;11.65;5.53;;;;;;;21.52;100.00;100990.66;5036137;28;20033;-75
2022/09/02 05:05:40;;;;;;;11.80;5.60;;;;;;;21.92;100.00;100977.59;5037416;28;20170;-74
2022/09/02 05:08:26;;;;;;;11.05;4.93;;;;;;;21.79;100.00;100997.94;5036682;28;20044;-74
2022/09/02 05:11:20;;;;;;;15.93;5.82;;;;;;;21.95;100.00;100998.75;5036763;28;20025;-73
2022/09/02 05:14:06;;;;;;;10.60;5.80;;;;;;;21.98;100.00;101003.06;5022835;28;20072;-74
2022/09/02 05:16:55;;;;;;;12.70;6.47;;;;;;;22.28;100.00;101004.75;5035292;28;20112;-74
2022/09/02 05:19:40;;;;;;;12.57;6.50;;;;;;;22.18;100.00;101003.56;5035888;28;20086;-73
2022/09/02 05:22:28;;;;;;;12.32;5.90;;;;;;;22.31;100.00;100995.69;5035551;28;20486;-75
2022/09/02 05:25:14;;;;;;;13.52;6.15;;;;;;;22.24;100.00;100992.53;5022918;28;20033;-74
2022/09/02 05:28:00;;;;;;;10.18;5.88;;;;;;;22.20;100.00;100987.47;5022142;28;20465;-74
2022/09/02 05:30:46;;;;;;;14.25;6.50;;;;;;;22.22;100.00;100989.06;5036628;28;20097;-75
2022/09/02 05:33:33;;;;;;;9.93;5.88;;;;;;;22.20;100.00;100976.78;5035957;28;20048;-74
2022/09/02 05:36:21;;;;;;;14.23;6.13;;;;;;;22.04;100.00;100978.66;5020631;28;20029;-74
2022/09/02 05:39:08;;;;;;;16.58;6.00;;;;;;;22.20;100.00;100983.00;5021758;28;20029;-74
2022/09/02 05:41:53;;;;;;;10.43;6.20;;;;;;;22.07;100.00;100970.47;5022026;28;20091;-74
2022/09/02 05:44:43;;;;;;;12.13;5.40;;;;;;;21.93;100.00;100976.66;5037026;28;20025;-74
2022/09/02 05:47:29;;;;;;;18.63;6.30;;;;;;;21.94;100.00;100975.69;5025204;28;20060;-74
2022/09/02 05:50:15;;;;;;;10.35;6.18;;;;;;;22.16;100.00;100976.13;5039647;28;20091;-74
2022/09/02 05:53:01;;;;;;;15.30;5.47;;;;;;;22.53;100.00;100978.28;5040760;28;20037;-73
2022/09/02 05:55:47;;;;;;;14.70;5.82;;;;;;;22.70;100.00;100978.06;5036629;28;20386;-73
2022/09/02 05:58:33;;;;;;;12.10;5.40;;;;;;;22.29;100.00;100973.53;5039679;28;20133;-74
2022/09/02 06:01:19;;;;;;;10.48;5.72;;;;;;;22.08;100.00;100981.06;5037903;28;20108;-73
2022/09/02 06:04:05;;;;;;;12.23;5.43;;;;;;;22.39;100.00;100975.53;5037449;28;20029;-73
2022/09/02 06:06:51;;;;;;;9.13;5.10;;;;;;;22.14;100.00;100983.34;5036493;28;20036;-73
2022/09/02 06:09:37;;;;;;;12.93;5.75;;;;;;;22.49;100.00;100983.88;5037223;28;20108;-73
2022/09/02 06:12:23;;;;;;;8.15;5.05;;;;;;;22.38;100.00;100986.34;5022006;28;20342;-73
2022/09/02 06:15:09;;;;;;;10.15;5.20;;;;;;;22.28;100.00;100987.84;5035336;28;20484;-73
2022/09/02 06:17:58;;;;;;;11.23;5.13;;;;;;;22.33;100.00;100983.94;5035867;28;20025;-73
2022/09/02 06:20:46;;;;;;;12.07;5.32;;;;;;;22.27;100.00;100980.81;5034913;28;20033;-76
2022/09/02 06:23:35;;;;;;;11.15;4.97;;;;;;;22.49;100.00;100983.88;5036093;28;20093;-74
2022/09/02 06:26:21;;;;;;;12.55;5.30;;;;;;;22.96;100.00;100985.28;5023750;28;20025;-73
2022/09/02 06:29:08;;;;;;;10.68;5.13;;;;;;;23.29;100.00;100985.81;5035852;28;20025;-74
2022/09/02 06:31:54;;;;;;;12.13;4.88;;;;;;;23.62;100.00;100985.38;5035914;28;20025;-73
2022/09/02 06:34:40;;;;;;;10.80;4.55;;;;;;;23.48;100.00;100984.56;5021496;28;20045;-74
2022/09/02 06:37:25;;;;;;;13.88;5.50;;;;;;;23.28;100.00;100981.41;5020445;28;20032;-74
2022/09/02 06:40:13;;;;;;;9.88;5.15;;;;;;;23.18;100.00;100988.28;5021103;28;20095;-74
2022/09/02 06:42:59;;;;;;;12.35;4.93;;;;;;;23.40;100.00;100993.97;5021055;28;20033;-74
2022/09/02 06:45:45;;;;;;;12.75;5.03;;;;;;;23.51;100.00;100995.97;5035669;28;20056;-74
2022/09/02 06:48:31;;;;;;;14.13;4.38;;;;;;;23.64;100.00;100985.28;5034060;28;20025;-74
2022/09/02 06:51:22;;;;;;;7.80;4.30;;;;;;;23.30;100.00;100983.97;5034180;28;20018;-75
2022/09/02 06:54:11;;;;;;;14.13;4.65;;;;;;;23.77;100.00;100989.72;5035817;28;20437;-72
2022/09/02 06:56:57;;;;;;;9.10;4.43;;;;;;;23.77;100.00;100992.38;5034643;28;20052;-73
2022/09/02 06:59:45;;;;;;;8.55;4.45;;;;;;;23.27;100.00;100990.38;5035369;28;20060;-73
2022/09/02 07:02:31;;;;;;;6.53;4.30;;;;;;;23.61;100.00;100994.38;5022158;28;20037;-73
2022/09/02 07:05:17;;;;;;;10.65;4.50;;;;;;;23.64;100.00;100995.97;5038234;28;20030;-74
2022/09/02 07:08:03;;;;;;;7.95;4.70;;;;;;;23.94;100.00;101002.00;5036831;28;20029;-73
2022/09/02 07:10:48;;;;;;;11.43;3.95;;;;;;;24.44;100.00;101005.56;5023326;28;20021;-74
2022/09/02 07:13:34;;;;;;;15.18;4.53;;;;;;;24.32;100.00;101009.09;5040549;28;20029;-74
2022/09/02 07:16:20;;;;;;;17.27;4.78;;;;;;;24.62;100.00;101012.34;5038638;28;20030;-75
2022/09/02 07:19:06;;;;;;;11.65;4.28;;;;;;;24.31;100.00;101007.38;5036769;28;20410;-73
2022/09/02 07:21:52;;;;;;;14.35;5.15;;;;;;;24.14;100.00;101015.72;5035250;28;20112;-74
2022/09/02 07:24:38;;;;;;;11.13;4.32;;;;;;;24.49;100.00;101007.91;5034454;28;20100;-75
2022/09/02 07:27:24;;;;;;;8.65;4.18;;;;;;;24.47;100.00;101013.38;5021825;28;20037;-75
2022/09/02 07:30:11;;;;;;;12.15;4.03;;;;;;;24.67;100.00;101020.06;5035015;28;20029;-73
2022/09/02 07:32:57;;;;;;;9.55;4.78;;;;;;;24.65;100.00;101019.28;5034392;28;20048;-74
2022/09/02 07:35:44;;;;;;;9.63;4.75;;;;;;;25.58;100.00;101012.41;5021007;28;20033;-74
2022/09/02 07:38:31;;;;;;;9.35;4.32;;;;;;;24.83;100.00;101008.13;5034982;28;20033;-73
2022/09/02 07:41:16;;;;;;;13.75;4.43;;;;;;;25.47;100.00;101004.34;5034531;28;20382;-74
2022/09/02 07:44:04;;;;;;;13.20;4.80;;;;;;;25.53;100.00;101001.19;5032808;28;20366;-74
2022/09/02 07:46:50;;;;;;;14.35;4.65;;;;;;;25.43;100.00;101006.38;5033525;28;20091;-74
2022/09/02 07:49:36;;;;;;;10.85;4.65;;;;;;;24.88;100.00;101005.13;5019881;28;20029;-74
2022/09/02 07:52:21;;;;;;;10.05;4.30;;;;;;;25.00;100.00;101015.78;5034664;28;20117;-75
2022/09/02 07:55:08;;;;;;;9.40;4.30;;;;;;;25.02;100.00;101011.19;5033900;28;20025;-74
2022/09/02 07:57:53;;;;;;;9.25;4.40;;;;;;;25.25;100.00;101013.06;5033549;28;20397;-74
2022/09/02 08:00:40;;;;;;;12.18;4.60;;;;;;;24.75;100.00;101015.84;5035990;28;20465;-74
2022/09/02 08:03:26;;;;;;;9.20;4.50;;;;;;;25.38;100.00;101013.03;5037507;28;20347;-75
2022/09/02 08:06:13;;;;;;;8.30;4.28;;;;;;;25.02;100.00;101015.69;5038014;28;20025;-74
2022/09/02 08:08:59;;;;;;;10.85;4.03;;;;;;;25.37;100.00;101008.66;5037804;28;20036;-73
2022/09/02 08:11:47;;;;;;;12.43;4.80;;;;;;;25.52;100.00;101004.84;5022984;28;20029;-74
2022/09/02 08:14:33;;;;;;;9.00;4.15;;;;;;;25.38;100.00;101008.53;5015201;28;20052;-74
2022/09/02 08:17:19;;;;;;;8.48;4.00;;;;;;;25.08;100.00;100996.50;5037155;28;20030;-74
2022/09/02 08:20:10;;;;;;;10.18;4.68;;;;;;;25.19;100.00;101000.09;5037171;28;20480;-72
2022/09/02 08:22:57;;;;;;;7.53;4.00;;;;;;;25.05;100.00;100999.38;5036760;28;20098;-72
2022/09/02 08:25:44;;;;;;;12.10;4.32;;;;;;;25.54;100.00;100995.69;5036332;28;20422;-72
2022/09/02 08:28:30;;;;;;;15.60;6.15;;;;;;;26.37;100.00;101002.72;5036756;28;20088;-71
2022/09/02 08:31:17;;;;;;;23.85;12.50;;;;;;;26.05;100.00;100990.91;5039723;28;20097;-71
2022/09/02 08:34:03;;;;;;;13.52;5.45;;;;;;;26.47;100.00;100988.44;5039110;28;20094;-72
2022/09/02 08:36:49;;;;;;;10.68;4.68;;;;;;;26.31;100.00;100998.66;5040508;28;20125;-70
2022/09/02 08:39:36;;;;;;;9.93;4.10;;;;;;;26.09;100.00;100992.41;5027328;28;20094;-72
2022/09/02 08:42:42;;;;;;;10.63;5.13;;;;;;;26.71;100.00;100986.50;5039578;28;20025;-72
2022/09/02 08:45:38;;;;;;;16.77;4.78;;;;;;;26.16;100.00;100990.97;5038893;28;20391;-71
2022/09/02 08:48:37;;;;;;;16.05;4.55;;;;;;;26.65;100.00;100992.38;5038766;28;20113;-73
2022/09/02 08:51:36;;;;;;;16.23;4.00;;;;;;;26.16;100.00;100982.91;5038401;28;20029;-73
2022/09/02 08:54:44;;;;;;;9.82;4.40;;;;;;;25.89;100.00;100984.97;5037412;28;20340;-72
2022/09/02 08:57:30;;;;;;;9.32;4.10;;;;;;;25.93;100.00;100973.03;5037892;28;20382;-72
2022/09/02 09:00:16;;;;;;;7.50;4.18;;;;;;;25.67;100.00;100964.28;5038401;28;20067;-72
2022/09/02 09:03:14;;;;;;;14.07;4.03;;;;;;;25.51;100.00;100968.25;5035808;28;20025;-72
2022/09/02 09:06:12;;;;;;;9.20;3.70;;;;;;;25.87;100.00;100950.19;5036559;28;20029;-72
2022/09/02 09:09:13;;;;;;;15.20;3.95;;;;;;;25.53;100.00;100959.13;5036696;28;20044;-72
2022/09/02 09:12:13;;;;;;;11.90;3.95;;;;;;;25.91;100.00;100954.34;5036508;28;20025;-72
2022/09/02 09:15:30;;;;;;;11.27;3.70;;;;;;;26.48;100.00;100949.81;5017481;28;20363;-72
2022/09/02 09:18:19;;;;;;;10.80;3.50;;;;;;;26.92;100.00;100947.13;5036370;28;20441;-72
2022/09/02 09:21:07;;;;;;;9.98;3.50;;;;;;;26.73;100.00;100935.31;5035929;28;20478;-72
2022/09/02 09:23:54;;;;;;;14.38;3.92;;;;;;;26.84;100.00;100928.06;5035999;28;20025;-72
2022/09/02 09:26:41;;;;;;;8.45;3.95;;;;;;;26.78;100.00;100930.41;5035875;28;20025;-72
2022/09/02 09:29:32;;;;;;;16.25;4.50;;;;;;;26.98;100.00;100921.56;5035537;28;20033;-75
2022/09/02 09:32:41;;;;;;;11.23;4.10;;;;;;;27.53;100.00;100918.72;5036491;28;20029;-75
2022/09/02 09:35:47;;;;;;;10.23;4.00;;;;;;;27.46;99.98;100914.84;5036938;28;20029;-72
2022/09/02 09:38:34;;;;;;;17.63;4.25;;;;;;;28.05;99.17;100916.00;5034691;28;20037;-72
2022/09/02 09:41:27;;;;;;;8.00;3.83;;;;;;;28.00;96.04;100907.44;5036159;28;20110;-72
2022/09/02 09:44:32;;;;;;;9.45;4.13;;;;;;;28.43;95.03;100916.22;5036688;28;20025;-72
2022/09/02 09:47:21;;;;;;;12.15;4.38;;;;;;;28.82;93.28;100910.00;5035503;28;20033;-72
2022/09/02 09:50:17;;;;;;;7.78;4.07;;;;;;;28.99;90.33;100909.31;5035841;28;20026;-74
2022/09/02 09:53:25;;;;;;;12.32;3.72;;;;;;;28.35;94.07;100907.94;5035455;28;20044;-72
2022/09/02 09:56:13;;;;;;;8.52;4.38;;;;;;;28.50;95.17;100905.75;5034945;28;20049;-72
2022/09/02 09:58:59;;;;;;;16.95;6.32;;;;;;;28.45;96.52;100889.16;5035129;28;20533;-72
2022/09/02 10:01:50;;;;;;;11.80;4.28;;;;;;;28.46;94.86;100891.72;5035318;28;20036;-72
2022/09/02 10:04:35;;;;;;;13.07;3.75;;;;;;;28.25;95.64;100908.88;5035641;28;20036;-72
2022/09/02 10:07:40;;;;;;;11.80;4.13;;;;;;;27.93;96.98;100891.97;5035448;28;20087;-72
2022/09/02 10:10:27;;;;;;;9.73;4.35;;;;;;;28.04;95.84;100890.03;5035322;28;20442;-73
2022/09/02 10:13:24;;;;;;;7.68;3.80;;;;;;;28.57;95.44;100885.34;5034272;28;20378;-73
2022/09/02 10:16:55;;;;;;;8.27;3.60;;;;;;;29.62;91.94;100887.22;5034837;28;20029;-73
2022/09/02 10:20:23;;;;;;;11.27;3.97;;;;;;;28.40;96.16;100876.03;5034113;28;20450;-72
2022/09/02 10:23:34;;;;;;;13.18;4.13;;;;;;;28.91;95.62;100860.59;4973972;28;20142;-72
2022/09/02 10:26:46;;;;;;;22.73;3.88;;;;;;;28.11;97.51;100863.41;5035617;28;20075;-73
2022/09/02 10:29:40;;;;;;;11.30;3.70;;;;;;;28.55;97.41;100854.97;5035191;28;20349;-72
2022/09/02 10:32:54;;;;;;;12.07;3.85;;;;;;;28.18;97.86;100851.97;5034626;28;20377;-73
2022/09/02 10:35:44;;;;;;;14.27;3.90;;;;;;;28.40;98.84;100851.75;5034252;28;20013;-72
2022/09/02 10:38:43;;;;;;;9.43;3.80;;;;;;;28.69;97.95;100841.94;5034839;28;20472;-72
2022/09/02 10:41:45;;;;;;;15.07;3.50;;;;;;;28.46;98.47;100843.19;5034408;28;20030;-72
2022/09/02 10:45:11;;;;;;;12.60;3.55;;;;;;;29.23;96.54;100833.34;5035157;28;20385;-72
2022/09/02 10:48:12;;;;;;;9.93;3.47;;;;;;;28.76;98.37;100824.22;4993429;28;20076;-72
2022/09/02 10:51:45;;;;;;;7.90;3.60;;;;;;;28.99;96.55;100814.88;5034492;28;20130;-74
2022/09/02 10:54:57;;;;;;;7.72;3.47;;;;;;;29.12;96.00;100810.06;4996869;28;20033;-73
2022/09/02 10:58:11;;;;;;;10.43;3.90;;;;;;;29.93;94.75;100807.66;5034096;28;20077;-73
2022/09/02 11:00:57;;;;;;;12.90;3.42;;;;;;;29.59;93.23;100792.13;5034344;28;20036;-73
2022/09/02 11:03:46;;;;;;;9.10;3.42;;;;;;;29.75;91.92;100793.25;5034613;28;20029;-72
2022/09/02 11:06:39;;;;;;;5.40;3.20;;;;;;;29.56;95.28;100787.84;5034141;28;20060;-72
2022/09/02 11:09:54;;;;;;;12.68;3.75;;;;;;;29.84;94.24;100777.97;5034004;28;20041;-72
2022/09/02 11:12:55;;;;;;;11.32;4.10;;;;;;;29.73;95.40;100780.88;4977808;28;20045;-73
2022/09/02 11:16:01;;;;;;;8.80;3.65;;;;;;;29.88;96.56;100791.06;5033498;28;20467;-73
2022/09/02 11:18:58;;;;;;;7.30;4.28;;;;;;;29.59;97.94;100782.19;5033763;28;20029;-73
2022/09/02 11:22:18;;;;;;;10.38;4.00;;;;;;;29.24;98.68;100799.97;5034054;28;20021;-72
2022/09/02 11:25:12;;;;;;;10.00;3.83;;;;;;;29.11;99.35;100792.19;5033788;28;20124;-72
2022/09/02 11:28:08;;;;;;;8.35;4.07;;;;;;;29.68;98.83;100796.66;5034212;28;20022;-73
2022/09/02 11:31:00;;;;;;;12.38;3.88;;;;;;;29.50;99.51;100796.50;5034005;28;20065;-74
2022/09/02 11:34:06;;;;;;;12.15;4.95;;;;;;;29.51;99.03;100797.38;5035037;28;20021;-72
2022/09/02 11:36:52;;;;;;;8.57;3.92;;;;;;;28.74;100.00;100787.59;5037499;28;20022;-73
2022/09/02 11:40:00;;;;;;;8.07;3.83;;;;;;;29.37;99.50;100784.34;5037743;28;20032;-72
2022/09/02 11:42:46;;;;;;;23.30;4.15;;;;;;;29.18;100.00;100787.94;5037892;28;20025;-73
2022/09/02 11:45:43;;;;;;;10.88;3.55;;;;;;;29.15;100.00;100784.63;5037443;28;20021;-73
2022/09/02 11:48:58;;;;;;;10.60;3.40;;;;;;;29.43;100.00;100781.91;5038085;28;20025;-73
2022/09/02 11:51:50;;;;;;;17.00;3.78;;;;;;;29.60;97.03;100785.72;5036637;28;20040;-74
2022/09/02 11:54:43;;;;;;;13.48;4.10;;;;;;;29.46;96.19;100781.63;5038117;28;20044;-73
2022/09/02 11:57:31;;;;;;;6.70;3.53;;;;;;;29.17;100.00;100780.78;5036463;28;20049;-73
2022/09/02 12:00:57;;;;;;;8.40;3.10;;;;;;;29.06;100.00;100772.88;5037867;28;20116;-72
2022/09/02 12:03:53;;;;;;;13.07;3.80;;;;;;;30.15;98.82;100769.50;5022707;28;20458;-73
2022/09/02 12:07:04;;;;;;;11.80;3.38;;;;;;;29.41;98.78;100767.69;5038267;28;20029;-73
2022/09/02 12:09:55;;;;;;;14.63;4.05;;;;;;;29.19;100.00;100769.88;5037626;28;20029;-73
2022/09/02 12:12:41;;;;;;;13.73;4.40;;;;;;;29.21;100.00;100763.31;5023409;28;20040;-73
2022/09/02 12:15:27;;;;;;;9.13;4.32;;;;;;;29.24;100.00;100765.75;5023017;28;20025;-73
2022/09/02 12:18:27;;;;;;;9.32;3.80;;;;;;;29.05;100.00;100760.34;5038216;28;20030;-73
2022/09/02 12:21:15;;;;;;;7.25;4.15;;;;;;;28.88;100.00;100750.25;5037061;28;20033;-73
2022/09/02 12:24:03;;;;;;;5.90;3.85;;;;;;;28.57;100.00;100753.22;5037483;28;20033;-73
2022/09/02 12:26:51;;;;;;;9.38;3.53;;;;;;;27.66;100.00;100743.50;5022933;28;20032;-73
2022/09/02 12:29:37;;;;;;;8.07;4.05;;;;;;;27.53;100.00;100739.22;5022698;28;20029;-73
2022/09/02 12:33:01;;;;;;;12.65;6.20;;;;;;;27.26;100.00;100741.63;5036765;28;20108;-73
2022/09/02 12:35:46;;;;;;;17.63;10.88;;;;;;;26.65;100.00;100744.22;5036396;28;20029;-73
2022/09/02 12:38:34;;;;;;;20.30;14.27;;;;;;;26.35;100.00;100738.63;5036023;28;20040;-73
2022/09/02 12:41:29;;;;;;;18.48;13.30;;;;;;;26.21;100.00;100741.63;5036148;28;20498;-73
2022/09/02 12:44:38;;;;;;;16.17;11.07;;;;;;;26.42;100.00;100737.16;5036493;28;20044;-73
2022/09/02 12:47:56;;;;;;;15.10;10.15;;;;;;;26.58;100.00;100746.56;5036637;28;20057;-73
2022/09/02 12:50:54;;;;;;;11.40;7.47;;;;;;;26.04;100.00;100745.66;5037108;28;20025;-72
2022/09/02 12:53:45;;;;;;;12.82;7.28;;;;;;;26.18;100.00;100766.91;5036992;28;20108;-73
2022/09/02 12:56:31;;;;;;;17.83;6.75;;;;;;;26.42;100.00;100777.47;5036418;28;20053;-73
2022/09/02 12:59:32;;;;;;;9.55;6.47;;;;;;;26.12;100.00;100790.72;5035637;28;20033;-73